createdAt,value
2018-04-10T00:09:37.982Z,14.6
2018-04-10T00:19:36.976Z,14.4
2018-04-10T00:29:36.406Z,14.3
2018-04-10T00:39:35.340Z,14.3
2018-04-10T00:49:35.071Z,14.1
2018-04-10T00:59:34.129Z,13.9
2018-04-10T01:09:32.826Z,13.9
2018-04-10T01:19:31.873Z,13.7
2018-04-10T01:29:31.200Z,13.6
2018-04-10T01:39:30.376Z,13.6
2018-04-10T01:49:29.867Z,13.6
2018-04-10T01:59:29.000Z,13.5
2018-04-10T02:09:28.330Z,13.5
2018-04-10T02:19:27.501Z,13.5
2018-04-10T02:29:26.704Z,13.4
2018-04-10T02:39:25.882Z,13.4
2018-04-10T02:49:25.102Z,13.3
2018-04-10T02:59:24.290Z,13.2
2018-04-10T03:09:23.467Z,13.1
2018-04-10T03:19:22.667Z,13.1
2018-04-10T03:29:21.685Z,13
2018-04-10T03:39:21.120Z,13
2018-04-10T03:49:20.494Z,12.9
2018-04-10T03:59:19.261Z,13.5
2018-04-10T04:09:18.772Z,16.4
2018-04-10T04:19:17.985Z,14.3
2018-04-10T04:29:17.499Z,13.1
2018-04-10T04:39:16.193Z,12.9
2018-04-10T04:49:15.708Z,12.8
2018-04-10T04:59:15.075Z,13.4
2018-04-10T05:09:13.762Z,13.8
2018-04-10T05:19:13.779Z,13.9
2018-04-10T05:29:12.221Z,13.9
2018-04-10T05:39:11.625Z,14.1
2018-04-10T05:49:11.007Z,15.1
2018-04-10T05:59:10.061Z,17.1
2018-04-10T06:09:09.294Z,19
2018-04-10T06:19:08.200Z,20.5
2018-04-10T06:29:07.801Z,22.1
2018-04-10T06:39:07.012Z,23.3
2018-04-10T06:49:06.087Z,23.2
2018-04-10T06:59:05.421Z,23.6
2018-04-10T07:09:04.243Z,24.9
2018-04-10T07:19:03.512Z,26.4
2018-04-10T07:29:02.930Z,27.5
2018-04-10T07:39:01.892Z,28.1
2018-04-10T07:49:01.743Z,29.3
2018-04-10T07:59:00.975Z,30.8
2018-04-10T08:08:59.781Z,31.4
2018-04-10T08:18:58.980Z,31.9
2018-04-10T08:28:58.349Z,30.6
2018-04-10T08:38:57.226Z,31.1
2018-04-10T08:48:56.652Z,30.9
2018-04-10T08:58:55.825Z,30.4
2018-04-10T09:08:55.387Z,29.6
2018-04-10T09:18:54.250Z,30.4
2018-04-10T09:28:53.243Z,31.5
2018-04-10T09:38:52.718Z,30.9
2018-04-10T09:48:52.225Z,30.4
2018-04-10T09:58:50.812Z,29.4
2018-04-10T10:08:50.384Z,28.9
2018-04-10T10:18:49.294Z,28.6
2018-04-10T10:28:48.549Z,28.8
2018-04-10T10:38:47.914Z,28.8
2018-04-10T10:48:46.892Z,28.6
2018-04-10T10:58:46.115Z,28.6
2018-04-10T11:08:45.311Z,27.6
2018-04-10T11:18:45.050Z,26.7
2018-04-10T11:28:44.038Z,26.8
2018-04-10T11:38:43.216Z,26.6
2018-04-10T11:48:42.286Z,26.3
2018-04-10T11:58:41.694Z,25.8
2018-04-10T12:08:40.826Z,25.2
2018-04-10T12:18:39.750Z,24.9
2018-04-10T12:28:39.519Z,24.8
2018-04-10T12:38:38.200Z,24.6
2018-04-10T12:48:38.013Z,24.3
2018-04-10T12:58:36.608Z,24.3
2018-04-10T13:08:36.182Z,24.3
2018-04-10T13:18:35.312Z,24.2
2018-04-10T13:28:34.416Z,23.8
2018-04-10T13:38:33.758Z,23.6
2018-04-10T13:48:33.022Z,23.5
2018-04-10T13:58:32.234Z,23.6
2018-04-10T14:08:31.704Z,23.3
2018-04-10T14:18:30.610Z,23.3
2018-04-10T14:28:29.806Z,23.5
2018-04-10T14:38:29.086Z,23.6
2018-04-10T14:48:28.226Z,23.4
2018-04-10T14:58:27.417Z,23.3
2018-04-10T15:08:26.681Z,23.2
2018-04-10T15:18:25.624Z,23.1
2018-04-10T15:28:25.381Z,23
2018-04-10T15:38:24.343Z,22.8
2018-04-10T15:48:23.755Z,22.8
2018-04-10T15:58:22.742Z,22.6
2018-04-10T16:08:21.957Z,22.4
2018-04-10T16:18:21.183Z,22.3
2018-04-10T16:28:20.259Z,22.1
2018-04-10T16:38:19.690Z,21.8
2018-04-10T16:48:18.473Z,21.5
2018-04-10T16:58:18.241Z,21.4
2018-04-10T17:08:17.162Z,21.2
2018-04-10T17:18:16.656Z,20.9
2018-04-10T17:28:15.630Z,20.7
2018-04-10T17:38:14.620Z,20.6
2018-04-10T17:48:14.336Z,20.4
2018-04-10T17:58:13.220Z,20.2
2018-04-10T18:08:12.213Z,20
2018-04-10T18:18:11.670Z,19.9
2018-04-10T18:28:10.683Z,19.8
2018-04-10T18:38:10.479Z,19.7
2018-04-10T18:48:09.860Z,19.5
2018-04-10T18:58:08.515Z,19.4
2018-04-10T19:08:08.135Z,19.4
2018-04-10T19:29:05.780Z,19.1
2018-04-10T19:48:26.977Z,18.8
2018-04-10T19:58:26.326Z,18.6
2018-04-10T20:08:25.551Z,18.3
2018-04-10T20:18:24.810Z,18.2
2018-04-10T20:28:23.962Z,18.1
2018-04-10T20:38:23.274Z,18.1
2018-04-10T20:48:22.744Z,18
2018-04-10T20:58:21.727Z,17.9
2018-04-10T21:08:20.624Z,17.9
2018-04-10T21:18:19.820Z,17.8
2018-04-10T21:28:19.307Z,17.8
2018-04-10T21:38:18.691Z,17.8
2018-04-10T21:48:17.723Z,17.6
2018-04-10T21:58:16.844Z,17.6
2018-04-10T22:08:16.149Z,17.5
2018-04-10T22:18:15.406Z,17.4
2018-04-10T22:28:14.455Z,17.4
2018-04-10T22:38:13.527Z,17.4
2018-04-10T22:48:13.032Z,17.4
2018-04-10T22:58:11.895Z,17.3
2018-04-10T23:08:11.757Z,17.1
2018-04-10T23:18:10.333Z,16.8
2018-04-10T23:28:09.660Z,16.6
2018-04-10T23:38:09.047Z,16.5
2018-04-10T23:48:08.278Z,16.6
2018-04-10T23:58:07.472Z,16.7
